Time;durP1;ratioP1;P1;durP2;ratioP2;P2;SDS_P1;SDS_P2;PMS_P1;PMS_P2;Temp;Humidity;BMP_temperature;BMP_pressure;BME280_temperature;BME280_humidity;BME280_pressure;Samples;Min_cycle;Max_cycle;Signal;HPM_P1;HPM_P2
2023/03/28 00:00:24;;;;;;;0.00;0.00;;;;;;;2.36;94.96;99905.56;6128665;23;20354;-90
2023/03/28 00:02:49;;;;;;;0.00;0.00;;;;;;;2.39;93.20;99913.00;6127678;23;20412;-91
2023/03/28 00:05:16;;;;;;;0.10;0.10;;;;;;;2.39;93.68;99913.00;6157510;23;20102;-90
2023/03/28 00:07:42;;;;;;;0.00;0.00;;;;;;;2.43;92.51;99913.78;6182250;23;20027;-91
2023/03/28 00:10:08;;;;;;;0.00;0.00;;;;;;;2.29;92.63;99897.31;6131372;23;20103;-92
2023/03/28 00:12:34;;;;;;;0.00;0.00;;;;;;;2.37;92.36;99925.50;6131163;23;20099;-91
2023/03/28 00:15:03;;;;;;;0.08;0.08;;;;;;;2.41;91.76;99943.50;6131360;23;20017;-91
2023/03/28 00:17:29;;;;;;;0.00;0.00;;;;;;;2.32;91.77;99929.38;6155405;23;20012;-92
2023/03/28 00:19:55;;;;;;;0.08;0.08;;;;;;;2.24;89.82;99916.84;6180283;23;20000;-91
2023/03/28 00:22:21;;;;;;;0.13;0.13;;;;;;;2.38;90.56;99949.75;6129317;23;20016;-91
2023/03/28 00:24:47;;;;;;;0.10;0.10;;;;;;;2.37;90.90;99948.19;6130721;23;20563;-90
2023/03/28 00:27:14;;;;;;;0.00;0.00;;;;;;;2.15;89.70;99908.19;6130895;23;20099;-91
2023/03/28 00:29:40;;;;;;;0.00;0.00;;;;;;;2.44;87.22;99953.69;6155509;23;20512;-91
2023/03/28 00:32:06;;;;;;;0.00;0.00;;;;;;;2.49;86.05;99945.13;6130637;23;20091;-91
2023/03/28 00:34:31;;;;;;;0.13;0.13;;;;;;;2.17;87.65;99905.88;6132771;23;20043;-91
2023/03/28 00:36:57;;;;;;;1.35;0.90;;;;;;;2.24;87.52;99905.88;6131608;23;20052;-92
2023/03/28 00:39:23;;;;;;;0.30;0.30;;;;;;;2.23;87.27;99927.00;6156827;23;20009;-91
2023/03/28 00:41:48;;;;;;;0.00;0.00;;;;;;;2.21;86.31;99925.81;6131926;23;20313;-91
2023/03/28 00:44:40;;;;;;;0.32;0.32;;;;;;;2.35;86.76;99947.78;6156251;23;20441;-91
2023/03/28 00:47:37;;;;;;;0.00;0.00;;;;;;;2.20;86.69;99926.97;6154018;23;20404;-92
2023/03/28 00:50:09;;;;;;;0.00;0.00;;;;;;;2.32;85.14;99940.34;6095877;23;20020;-92
2023/03/28 00:52:43;;;;;;;0.03;0.03;;;;;;;2.28;85.26;99945.00;6130171;23;20450;-93
2023/03/28 00:55:15;;;;;;;0.00;0.00;;;;;;;2.26;84.85;99958.31;6130332;23;20016;-91
2023/03/28 00:57:42;;;;;;;0.00;0.00;;;;;;;2.26;85.50;99955.56;6155030;23;20012;-91
2023/03/28 01:00:11;;;;;;;0.00;0.00;;;;;;;2.26;85.69;99958.31;6130793;23;20336;-91
2023/03/28 01:02:40;;;;;;;0.28;0.28;;;;;;;2.00;86.33;99917.50;6070309;22;20001;-91
2023/03/28 01:05:26;;;;;;;0.00;0.00;;;;;;;2.19;88.57;99974.66;6115806;23;20034;-87
2023/03/28 01:07:56;;;;;;;0.00;0.00;;;;;;;2.09;89.44;99959.78;6120732;23;20044;-88
2023/03/28 01:10:23;;;;;;;0.00;0.00;;;;;;;1.95;90.71;99947.94;6097187;23;20026;-89
2023/03/28 01:12:50;;;;;;;0.00;0.00;;;;;;;1.98;91.59;99960.88;6072928;23;20062;-88
2023/03/28 01:15:18;;;;;;;0.00;0.00;;;;;;;1.98;93.54;99980.03;6097539;23;20560;-87
2023/03/28 01:17:51;;;;;;;0.00;0.00;;;;;;;1.84;94.20;99942.41;6098034;23;20010;-87
2023/03/28 01:21:02;;;;;;;0.20;0.20;;;;;;;1.83;95.80;99974.44;6096954;23;20028;-87
2023/03/28 01:23:57;;;;;;;0.00;0.00;;;;;;;1.88;96.50;99997.91;6121417;23;20041;-88
2023/03/28 01:26:48;;;;;;;0.00;0.00;;;;;;;1.80;97.73;99997.09;6097114;23;20025;-87
2023/03/28 01:29:44;;;;;;;0.00;0.00;;;;;;;1.48;98.84;99952.28;6099030;23;20112;-86
2023/03/28 01:32:34;;;;;;;0.00;0.00;;;;;;;1.72;99.80;100005.59;6121268;23;20021;-87
2023/03/28 01:35:23;;;;;;;0.00;0.00;;;;;;;1.68;100.00;100002.84;6098455;23;20450;-87
2023/03/28 01:37:58;;;;;;;0.00;0.00;;;;;;;1.60;100.00;99998.47;6097078;23;20075;-87
2023/03/28 01:40:29;;;;;;;0.00;0.00;;;;;;;1.55;100.00;100007.03;6096725;23;20017;-87
2023/03/28 01:43:07;;;;;;;0.00;0.00;;;;;;;1.59;100.00;100020.72;6122194;23;20358;-87
2023/03/28 01:45:41;;;;;;;0.00;0.00;;;;;;;1.54;100.00;100027.31;6120799;23;20093;-86
2023/03/28 01:48:26;;;;;;;1.75;0.57;;;;;;;1.44;100.00;100017.06;6072036;23;20017;-87
2023/03/28 01:51:02;;;;;;;0.10;0.10;;;;;;;1.49;100.00;100024.94;6097258;23;20014;-87
2023/03/28 01:53:31;;;;;;;0.00;0.00;;;;;;;1.42;100.00;100015.88;6096278;23;20020;-87
2023/03/28 01:55:57;;;;;;;0.00;0.00;;;;;;;1.44;100.00;100030.75;6097722;23;20504;-86
2023/03/28 01:58:34;;;;;;;0.00;0.00;;;;;;;1.23;100.00;99997.72;6098806;23;20072;-87
2023/03/28 02:01:12;;;;;;;0.00;0.00;;;;;;;1.36;100.00;100026.38;6100723;23;20022;-86
2023/03/28 02:03:43;;;;;;;0.00;0.00;;;;;;;1.14;100.00;99984.38;6103677;23;20040;-87
2023/03/28 02:06:31;;;;;;;0.00;0.00;;;;;;;1.25;100.00;100009.88;6112517;23;20005;-86
2023/03/28 02:09:03;;;;;;;0.00;0.00;;;;;;;1.37;100.00;100028.72;6152051;23;20013;-87
2023/03/28 02:11:49;;;;;;;0.00;0.00;;;;;;;1.23;100.00;100012.19;6137205;23;20499;-87
2023/03/28 02:14:32;;;;;;;0.00;0.00;;;;;;;1.21;100.00;100024.66;6130891;23;20070;-87
2023/03/28 02:17:21;;;;;;;0.00;0.00;;;;;;;1.29;100.00;100048.16;6134540;23;20104;-87
2023/03/28 02:20:10;;;;;;;0.00;0.00;;;;;;;1.16;100.00;100033.19;6111793;23;20067;-87
2023/03/28 02:23:02;;;;;;;0.65;0.65;;;;;;;1.32;100.00;100058.34;6115577;23;20017;-87
2023/03/28 02:25:44;;;;;;;1.60;1.25;;;;;;;1.35;100.00;100054.84;6131828;23;20021;-86
2023/03/28 02:28:30;;;;;;;0.10;0.10;;;;;;;1.28;100.00;100043.84;6135805;23;20480;-87
2023/03/28 02:31:22;;;;;;;0.00;0.00;;;;;;;1.35;100.00;100057.59;6153749;23;20059;-87
2023/03/28 02:33:50;;;;;;;0.00;0.00;;;;;;;1.36;100.00;100064.63;6104391;23;20079;-87
2023/03/28 02:36:29;;;;;;;0.00;0.00;;;;;;;1.35;100.00;100068.50;6104749;23;20021;-87
2023/03/28 02:39:13;;;;;;;0.00;0.00;;;;;;;1.33;100.00;100077.09;6103094;23;20048;-87
2023/03/28 02:42:10;;;;;;;0.55;0.43;;;;;;;1.30;100.00;100077.03;6104518;23;20135;-87
2023/03/28 02:44:53;;;;;;;0.47;0.47;;;;;;;1.37;100.00;100075.19;6128365;23;20017;-87
2023/03/28 02:47:25;;;;;;;;;;;;;;;1.34;100.00;100081.38;6127931;23;20435;-87
2023/03/28 02:50:11;;;;;;;0.00;0.00;;;;;;;1.22;100.00;100062.50;6128150;23;20384;-86
2023/03/28 02:52:50;;;;;;;0.00;0.00;;;;;;;1.20;100.00;100064.06;6129061;23;20039;-87
2023/03/28 02:55:37;;;;;;;0.00;0.00;;;;;;;1.21;100.00;100068.38;6103869;23;20021;-87
2023/03/28 02:58:46;;;;;;;0.10;0.10;;;;;;;1.24;100.00;100075.81;6132010;23;20017;-87
2023/03/28 03:01:14;;;;;;;0.00;0.00;;;;;;;1.16;100.00;100071.44;6116579;23;20515;-86
2023/03/28 03:03:41;;;;;;;0.28;0.28;;;;;;;1.22;100.00;100080.84;6102584;23;20021;-87
2023/03/28 03:06:07;;;;;;;0.13;0.13;;;;;;;1.18;100.00;100069.09;6103930;23;20024;-87
2023/03/28 03:08:33;;;;;;;0.00;0.00;;;;;;;1.23;100.00;100087.91;6103354;23;20089;-87
2023/03/28 03:11:00;;;;;;;0.00;0.00;;;;;;;1.08;100.00;100070.56;6112316;23;20083;-87
2023/03/28 03:13:25;;;;;;;0.25;0.25;;;;;;;1.14;100.00;100085.44;6103594;23;20438;-86
2023/03/28 03:15:54;;;;;;;0.00;0.00;;;;;;;1.06;100.00;100066.59;6102202;23;20031;-87
2023/03/28 03:18:23;;;;;;;0.00;0.00;;;;;;;1.14;100.00;100084.66;6105927;23;20009;-87
2023/03/28 03:20:49;;;;;;;0.00;0.00;;;;;;;0.92;100.00;100051.66;6103499;23;20065;-87
2023/03/28 03:23:15;;;;;;;0.00;0.00;;;;;;;0.91;100.00;100063.72;6102493;23;20013;-88
2023/03/28 03:25:44;;;;;;;0.00;0.00;;;;;;;0.94;100.00;100057.50;6103014;23;20475;-87
2023/03/28 03:28:20;;;;;;;0.10;0.10;;;;;;;1.25;100.00;100110.97;6108161;23;20100;-87
2023/03/28 03:30:47;;;;;;;0.00;0.00;;;;;;;1.03;100.00;100064.63;6102973;23;20032;-87
2023/03/28 03:33:31;;;;;;;0.00;0.00;;;;;;;1.24;100.00;100114.06;6113562;23;20025;-86
2023/03/28 03:36:03;;;;;;;0.32;0.32;;;;;;;1.11;100.00;100101.81;6104991;23;20084;-87
2023/03/28 03:38:29;;;;;;;0.22;0.20;;;;;;;0.91;100.00;100082.84;6128320;23;20056;-87
2023/03/28 03:40:55;;;;;;;0.00;0.00;;;;;;;0.86;100.00;100085.88;6102610;23;20068;-87
2023/03/28 03:43:21;;;;;;;0.30;0.30;;;;;;;1.09;100.00;100126.00;6102976;23;20021;-87
2023/03/28 03:45:47;;;;;;;0.38;0.38;;;;;;;1.04;100.00;100126.31;6102721;23;20031;-87
2023/03/28 03:48:13;;;;;;;0.08;0.08;;;;;;;0.89;100.00;100112.44;6102458;23;20048;-87
2023/03/28 03:50:39;;;;;;;0.00;0.00;;;;;;;1.01;100.00;100133.31;6103274;23;20536;-87
2023/03/28 03:53:11;;;;;;;0.00;0.00;;;;;;;0.67;100.00;100088.75;6124476;23;20017;-86
2023/03/28 03:55:45;;;;;;;0.47;0.47;;;;;;;0.96;100.00;100146.50;6102887;23;20066;-87
2023/03/28 03:58:11;;;;;;;0.10;0.10;;;;;;;0.66;100.00;100100.03;6104527;23;20016;-86
2023/03/28 04:00:43;;;;;;;0.00;0.00;;;;;;;0.72;100.00;100107.56;6105290;23;20345;-87
2023/03/28 04:03:25;;;;;;;0.23;0.17;;;;;;;0.85;100.00;100143.63;6133116;23;20016;-87
2023/03/28 04:05:51;;;;;;;0.00;0.00;;;;;;;0.73;100.00;100111.06;6128057;23;20017;-87
2023/03/28 04:08:17;;;;;;;0.00;0.00;;;;;;;0.68;100.00;100119.56;6129284;23;20068;-87
2023/03/28 04:10:43;;;;;;;0.00;0.00;;;;;;;0.85;100.00;100149.84;6154930;23;20432;-88
2023/03/28 04:13:09;;;;;;;0.03;0.03;;;;;;;0.71;100.00;100132.47;6105157;23;20393;-89
2023/03/28 04:15:36;;;;;;;0.00;0.00;;;;;;;0.70;100.00;100142.63;6129416;23;20017;-87
2023/03/28 04:18:21;;;;;;;0.00;0.00;;;;;;;0.63;100.00;100137.06;6111569;23;20020;-87
2023/03/28 04:20:54;;;;;;;0.00;0.00;;;;;;;0.45;100.00;100125.06;6128291;23;20017;-88
2023/03/28 04:23:42;;;;;;;0.00;0.00;;;;;;;0.60;100.00;100154.19;6136636;23;20028;-87
2023/03/28 04:26:26;;;;;;;0.00;0.00;;;;;;;0.59;100.00;100163.50;6133084;23;20087;-87
2023/03/28 04:29:02;;;;;;;0.47;0.32;;;;;;;0.24;100.00;100132.94;6106994;23;20016;-87
2023/03/28 04:31:34;;;;;;;0.00;0.00;;;;;;;0.39;100.00;100170.22;6105836;23;20048;-88
2023/03/28 04:34:32;;;;;;;0.00;0.00;;;;;;;0.28;100.00;100158.34;6138778;23;20040;-87
2023/03/28 04:37:05;;;;;;;0.00;0.00;;;;;;;0.44;100.00;100198.00;6105810;23;20489;-88
2023/03/28 04:39:40;;;;;;;1.67;0.95;;;;;;;0.36;100.00;100182.66;6105830;23;20016;-87
2023/03/28 04:42:26;;;;;;;0.00;0.00;;;;;;;0.32;100.00;100186.47;6114450;23;20461;-87
2023/03/28 04:45:18;;;;;;;0.30;0.30;;;;;;;0.35;100.00;100196.66;6130436;23;20034;-86
2023/03/28 04:47:45;;;;;;;0.08;0.08;;;;;;;0.34;100.00;100197.81;6100035;23;20017;-87
2023/03/28 04:50:20;;;;;;;0.00;0.00;;;;;;;0.13;100.00;100172.88;6126353;23;20101;-91
2023/03/28 04:52:45;;;;;;;0.00;0.00;;;;;;;0.18;100.00;100189.75;6125511;23;20501;-91
2023/03/28 04:55:14;;;;;;;0.10;0.10;;;;;;;0.06;100.00;100170.03;6101827;23;20084;-91
2023/03/28 04:57:44;;;;;;;0.00;0.00;;;;;;;0.32;100.00;100213.75;6124227;23;20033;-90
2023/03/28 05:00:11;;;;;;;0.20;0.20;;;;;;;0.35;100.00;100213.03;6103102;23;20009;-90
2023/03/28 05:02:58;;;;;;;0.00;0.00;;;;;;;0.27;100.00;100205.88;6133142;23;20028;-88
2023/03/28 05:05:26;;;;;;;0.00;0.00;;;;;;;0.31;100.00;100201.25;6101750;23;20025;-86
2023/03/28 05:07:55;;;;;;;0.00;0.00;;;;;;;0.41;100.00;100217.00;6123287;23;20382;-88
2023/03/28 05:10:22;;;;;;;0.00;0.00;;;;;;;0.37;100.00;100206.03;6102058;23;20017;-86
2023/03/28 05:12:49;;;;;;;0.00;0.00;;;;;;;0.40;100.00;100208.06;6124422;23;20051;-87
2023/03/28 05:15:15;;;;;;;0.00;0.00;;;;;;;0.42;100.00;100197.56;6101328;23;20100;-86
2023/03/28 05:17:53;;;;;;;0.10;0.10;;;;;;;0.56;100.00;100209.88;6106068;23;20096;-86
2023/03/28 05:20:31;;;;;;;0.20;0.20;;;;;;;0.59;100.00;100214.59;6107513;23;20013;-86
2023/03/28 05:22:57;;;;;;;0.00;0.00;;;;;;;0.62;100.00;100217.38;6127469;23;20008;-86
2023/03/28 05:25:23;;;;;;;0.10;0.10;;;;;;;0.79;100.00;100227.78;6127880;23;20013;-86
2023/03/28 05:27:50;;;;;;;0.00;0.00;;;;;;;0.92;100.00;100236.56;6104877;23;20520;-87
2023/03/28 05:30:16;;;;;;;0.10;0.10;;;;;;;1.02;100.00;100232.41;6129902;23;20483;-86
2023/03/28 05:32:42;;;;;;;0.00;0.00;;;;;;;1.12;100.00;100235.31;6104732;23;20472;-86
2023/03/28 05:35:11;;;;;;;0.00;0.00;;;;;;;1.19;100.00;100215.47;6131018;23;20344;-86
2023/03/28 05:37:37;;;;;;;0.10;0.10;;;;;;;1.38;100.00;100226.28;6131679;23;20070;-86
2023/03/28 05:40:08;;;;;;;0.40;0.40;;;;;;;1.52;100.00;100226.47;6106122;23;20364;-86
2023/03/28 05:42:37;;;;;;;0.00;0.00;;;;;;;1.67;99.64;100217.28;6131962;23;20171;-86
2023/03/28 05:45:11;;;;;;;0.10;0.10;;;;;;;1.91;95.15;100237.88;6108849;23;20044;-86
2023/03/28 05:47:39;;;;;;;0.00;0.00;;;;;;;2.02;94.59;100240.75;6132430;23;20024;-86
2023/03/28 05:50:07;;;;;;;0.63;0.63;;;;;;;2.12;95.02;100220.91;6129722;23;20353;-86
2023/03/28 05:52:33;;;;;;;0.17;0.17;;;;;;;2.38;89.97;100229.00;6153720;23;20005;-86
2023/03/28 05:55:04;;;;;;;0.13;0.13;;;;;;;2.60;86.36;100236.22;6129577;23;20016;-86
2023/03/28 05:57:30;;;;;;;0.00;0.00;;;;;;;2.78;83.80;100239.91;6128973;23;20009;-87
2023/03/28 05:59:56;;;;;;;0.13;0.13;;;;;;;2.90;81.62;100248.97;6128996;23;20063;-86
2023/03/28 06:02:23;;;;;;;0.00;0.00;;;;;;;2.94;81.72;100233.34;6105838;23;20009;-86
2023/03/28 06:04:52;;;;;;;0.03;0.03;;;;;;;3.19;80.54;100253.50;6130020;23;20079;-86
2023/03/28 06:07:18;;;;;;;0.00;0.00;;;;;;;3.31;77.43;100255.91;6130977;23;20013;-86
2023/03/28 06:09:45;;;;;;;1.63;0.50;;;;;;;3.35;74.01;100247.72;6131319;23;20017;-86
2023/03/28 06:12:10;;;;;;;0.17;0.17;;;;;;;3.34;75.31;100235.97;6131246;23;20354;-87
2023/03/28 06:14:41;;;;;;;0.05;0.05;;;;;;;3.80;75.70;100262.84;6108701;23;20044;-86
2023/03/28 06:17:12;;;;;;;0.00;0.00;;;;;;;3.97;74.28;100251.13;6131624;23;20013;-86
2023/03/28 06:19:47;;;;;;;0.00;0.00;;;;;;;4.06;72.87;100246.06;6155492;23;20024;-86
2023/03/28 06:22:12;;;;;;;0.40;0.40;;;;;;;4.24;69.21;100268.88;6130764;23;20017;-87
2023/03/28 06:24:41;;;;;;;0.00;0.00;;;;;;;4.15;67.17;100243.72;6131295;23;20017;-86
2023/03/28 06:27:07;;;;;;;0.00;0.00;;;;;;;4.53;67.64;100256.72;6126679;23;20013;-86
2023/03/28 06:29:37;;;;;;;0.00;0.00;;;;;;;4.63;62.43;100261.47;6131750;23;20445;-86
2023/03/28 06:32:03;;;;;;;0.15;0.15;;;;;;;4.44;61.34;100256.34;6106485;23;20005;-87
2023/03/28 06:34:30;;;;;;;0.10;0.10;;;;;;;4.58;62.94;100261.84;6105740;23;20016;-86
2023/03/28 06:37:00;;;;;;;0.00;0.00;;;;;;;4.74;61.63;100255.19;6108247;23;20118;-86
2023/03/28 06:39:38;;;;;;;0.00;0.00;;;;;;;4.89;60.54;100251.28;6111328;23;20400;-87
2023/03/28 06:42:04;;;;;;;0.20;0.20;;;;;;;5.10;59.70;100260.28;6131049;23;20067;-86
2023/03/28 06:44:40;;;;;;;0.00;0.00;;;;;;;5.26;58.32;100270.09;6132266;23;20167;-87
2023/03/28 06:47:26;;;;;;;0.00;0.00;;;;;;;5.23;55.36;100277.16;6123212;23;20322;-86
2023/03/28 06:49:54;;;;;;;0.00;0.00;;;;;;;5.19;53.48;100270.88;6105982;23;20065;-87
2023/03/28 06:52:21;;;;;;;0.00;0.00;;;;;;;5.31;54.06;100267.72;6156504;23;20452;-85
2023/03/28 06:54:48;;;;;;;0.00;0.00;;;;;;;5.23;54.49;100279.91;6131336;23;20047;-87
2023/03/28 06:57:15;;;;;;;0.00;0.00;;;;;;;5.37;55.01;100255.13;6154927;23;20016;-86
2023/03/28 06:59:41;;;;;;;0.00;0.00;;;;;;;5.63;51.46;100278.63;6154960;23;20021;-87
2023/03/28 07:02:12;;;;;;;0.63;0.60;;;;;;;5.37;51.11;100282.66;6107398;23;20005;-87
2023/03/28 07:04:39;;;;;;;0.00;0.00;;;;;;;5.62;52.33;100283.34;6129004;23;20369;-87
2023/03/28 07:07:06;;;;;;;0.10;0.10;;;;;;;5.59;50.26;100295.16;6130609;23;20048;-87
2023/03/28 07:09:32;;;;;;;0.00;0.00;;;;;;;5.43;50.16;100289.31;6155542;23;20013;-86
2023/03/28 07:12:04;;;;;;;0.00;0.00;;;;;;;5.66;51.67;100279.81;6108278;23;20430;-86
2023/03/28 07:14:31;;;;;;;0.00;0.00;;;;;;;6.11;51.68;100292.63;6106345;23;20017;-87
2023/03/28 07:16:57;;;;;;;0.10;0.10;;;;;;;6.27;49.80;100272.91;6155407;23;20062;-87
2023/03/28 07:19:24;;;;;;;0.60;0.60;;;;;;;6.48;49.03;100276.31;6106089;23;20009;-87
2023/03/28 07:21:51;;;;;;;0.00;0.00;;;;;;;6.56;45.83;100294.38;6130848;23;20025;-87
2023/03/28 07:24:18;;;;;;;0.30;0.30;;;;;;;6.51;46.03;100288.50;6130638;23;20013;-87
2023/03/28 07:26:52;;;;;;;0.00;0.00;;;;;;;6.84;46.89;100300.88;6109256;23;20017;-87
2023/03/28 07:29:18;;;;;;;0.00;0.00;;;;;;;6.73;45.75;100295.44;6130818;23;20016;-87
2023/03/28 07:31:43;;;;;;;0.20;0.08;;;;;;;6.27;45.95;100295.72;6130541;23;20009;-87
2023/03/28 07:34:09;;;;;;;0.03;0.03;;;;;;;6.37;46.97;100305.91;6129580;23;20032;-87
2023/03/28 07:36:37;;;;;;;0.10;0.10;;;;;;;6.49;45.31;100316.47;6105981;23;20009;-87
2023/03/28 07:39:09;;;;;;;0.00;0.00;;;;;;;6.66;45.82;100311.25;6109014;23;20307;-87
2023/03/28 07:41:35;;;;;;;0.38;0.38;;;;;;;6.69;44.98;100307.69;6105816;23;20059;-87
2023/03/28 07:44:01;;;;;;;0.00;0.00;;;;;;;6.80;45.19;100319.41;6105450;23;20044;-87
2023/03/28 07:46:26;;;;;;;0.00;0.00;;;;;;;6.71;46.63;100319.88;6106243;23;20434;-87
2023/03/28 07:48:53;;;;;;;0.00;0.00;;;;;;;6.71;45.99;100308.06;6129382;23;20055;-87
2023/03/28 07:51:19;;;;;;;0.00;0.00;;;;;;;6.78;46.43;100313.53;6105864;23;20020;-87
2023/03/28 07:53:44;;;;;;;0.00;0.00;;;;;;;7.16;45.80;100314.44;6130122;23;20432;-87
2023/03/28 07:56:10;;;;;;;0.15;0.15;;;;;;;7.21;45.31;100303.72;6129785;23;20013;-87
2023/03/28 07:58:54;;;;;;;0.98;0.52;;;;;;;7.43;43.04;100320.88;6133359;23;20017;-87
2023/03/28 08:01:21;;;;;;;0.80;0.60;;;;;;;7.00;41.91;100323.19;6130340;23;20092;-87
2023/03/28 08:03:58;;;;;;;0.35;0.35;;;;;;;7.16;42.38;100340.00;6130216;23;20318;-87
2023/03/28 08:06:33;;;;;;;0.00;0.00;;;;;;;7.41;41.61;100324.03;6132989;23;20055;-87
2023/03/28 08:09:00;;;;;;;0.00;0.00;;;;;;;7.40;41.54;100339.03;6106066;23;20521;-87
2023/03/28 08:11:44;;;;;;;0.45;0.45;;;;;;;7.47;42.36;100325.19;6133839;23;20008;-86
2023/03/28 08:14:12;;;;;;;0.00;0.00;;;;;;;7.74;42.34;100341.06;6105000;23;20017;-87
2023/03/28 08:16:38;;;;;;;0.00;0.00;;;;;;;7.73;41.34;100339.50;6130345;23;20017;-87
2023/03/28 08:19:04;;;;;;;0.08;0.08;;;;;;;7.71;41.72;100328.88;6128830;23;20092;-87
2023/03/28 08:21:30;;;;;;;0.00;0.00;;;;;;;7.66;41.19;100334.06;6130341;23;20121;-87
2023/03/28 08:23:57;;;;;;;0.00;0.00;;;;;;;7.93;41.72;100343.22;6129528;23;20025;-87
2023/03/28 08:26:35;;;;;;;0.10;0.10;;;;;;;8.03;41.04;100339.56;6110295;23;20032;-88
2023/03/28 08:29:03;;;;;;;0.20;0.20;;;;;;;8.17;42.79;100338.63;6104911;23;20013;-87
2023/03/28 08:31:29;;;;;;;0.10;0.10;;;;;;;8.29;40.48;100349.94;6130432;23;20087;-88
2023/03/28 08:34:02;;;;;;;0.00;0.00;;;;;;;8.43;41.13;100326.84;6106972;23;20008;-87
2023/03/28 08:36:34;;;;;;;0.00;0.00;;;;;;;8.24;39.46;100344.84;6108557;23;20017;-87
2023/03/28 08:39:03;;;;;;;0.00;0.00;;;;;;;7.78;39.56;100347.34;6105380;23;20020;-88
2023/03/28 08:42:02;;;;;;;0.00;0.00;;;;;;;7.42;41.97;100352.44;6154616;23;20009;-87
2023/03/28 08:44:40;;;;;;;0.00;0.00;;;;;;;7.37;42.66;100350.88;6129213;23;20503;-86
2023/03/28 08:47:18;;;;;;;0.00;0.00;;;;;;;7.03;42.79;100352.75;6130084;23;20422;-87
2023/03/28 08:49:48;;;;;;;0.30;0.30;;;;;;;6.71;43.79;100330.13;6129639;23;20013;-86
2023/03/28 08:52:17;;;;;;;0.00;0.00;;;;;;;6.67;44.33;100345.91;6129740;23;20013;-87
2023/03/28 08:55:00;;;;;;;0.10;0.10;;;;;;;6.60;42.68;100345.91;6129393;23;20039;-86
2023/03/28 08:57:28;;;;;;;0.00;0.00;;;;;;;6.65;43.85;100338.03;6130002;23;20052;-87
2023/03/28 09:00:14;;;;;;;0.00;0.00;;;;;;;6.88;43.00;100337.47;6105033;23;20020;-87
2023/03/28 09:02:40;;;;;;;0.20;0.20;;;;;;;7.43;43.26;100327.19;6105408;23;20021;-87
2023/03/28 09:05:13;;;;;;;0.00;0.00;;;;;;;7.83;40.20;100330.31;6128812;23;20088;-87
2023/03/28 09:08:12;;;;;;;0.10;0.10;;;;;;;8.20;39.03;100337.78;6129685;23;20402;-87
2023/03/28 09:10:46;;;;;;;0.00;0.00;;;;;;;7.69;37.87;100328.50;6105503;23;20063;-87
2023/03/28 09:13:39;;;;;;;0.00;0.00;;;;;;;7.73;40.69;100345.03;6105897;23;20005;-87
2023/03/28 09:16:50;;;;;;;0.00;0.00;;;;;;;7.34;39.49;100335.16;6129400;23;20021;-87
2023/03/28 09:19:37;;;;;;;2.08;0.73;;;;;;;7.43;41.36;100329.94;6150052;23;20369;-88
2023/03/28 09:22:35;;;;;;;0.00;0.00;;;;;;;7.70;39.29;100352.16;6160027;23;20014;-86
2023/03/28 09:25:54;;;;;;;0.00;0.00;;;;;;;7.25;37.61;100340.34;6129278;23;20021;-86
2023/03/28 09:28:34;;;;;;;0.00;0.00;;;;;;;7.07;38.74;100331.44;6129582;23;20048;-86
2023/03/28 09:31:01;;;;;;;0.00;0.00;;;;;;;6.98;38.68;100340.16;6105038;23;20024;-88
2023/03/28 09:33:33;;;;;;;0.10;0.10;;;;;;;7.21;38.84;100347.88;6129296;23;20009;-89
2023/03/28 09:36:01;;;;;;;0.00;0.00;;;;;;;7.39;38.41;100340.22;6180269;23;20045;-88
2023/03/28 09:38:33;;;;;;;0.00;0.00;;;;;;;7.53;37.93;100336.53;6129822;23;20009;-85
2023/03/28 09:41:04;;;;;;;0.00;0.00;;;;;;;7.75;36.73;100332.38;6129310;23;20013;-86
2023/03/28 09:43:46;;;;;;;0.20;0.20;;;;;;;8.00;37.28;100337.63;6165694;23;20025;-88
2023/03/28 09:46:38;;;;;;;0.00;0.00;;;;;;;8.42;35.63;100348.19;6137885;23;20083;-86
2023/03/28 09:49:23;;;;;;;0.00;0.00;;;;;;;7.89;35.42;100328.66;6110850;23;20013;-86
2023/03/28 09:52:00;;;;;;;0.00;0.00;;;;;;;7.89;36.10;100320.38;6109550;23;20437;-88
2023/03/28 09:54:32;;;;;;;0.00;0.00;;;;;;;8.83;36.14;100339.72;6129239;23;20099;-87
2023/03/28 09:57:03;;;;;;;0.20;0.20;;;;;;;9.03;34.77;100345.34;6129376;23;20020;-87
2023/03/28 09:59:41;;;;;;;0.10;0.10;;;;;;;9.29;33.99;100355.63;6131544;23;20071;-87
2023/03/28 10:02:31;;;;;;;0.10;0.10;;;;;;;8.38;34.72;100347.44;6129437;23;20331;-87
2023/03/28 10:05:00;;;;;;;0.00;0.00;;;;;;;8.68;34.95;100335.59;6128584;23;20017;-87
2023/03/28 10:07:43;;;;;;;0.00;0.00;;;;;;;8.78;35.29;100347.69;6155291;23;20025;-87
2023/03/28 10:10:32;;;;;;;0.00;0.00;;;;;;;8.96;33.60;100323.31;6143935;23;20021;-87
2023/03/28 10:13:09;;;;;;;0.00;0.00;;;;;;;9.17;33.66;100336.03;6131013;23;20454;-87
2023/03/28 10:15:44;;;;;;;0.00;0.00;;;;;;;9.45;33.96;100345.84;6129718;23;20091;-86
2023/03/28 10:18:29;;;;;;;0.00;0.00;;;;;;;9.55;34.60;100365.03;6136922;23;20028;-87
2023/03/28 10:21:19;;;;;;;0.00;0.00;;;;;;;8.66;35.86;100367.63;6138430;23;20028;-87
2023/03/28 10:24:19;;;;;;;0.00;0.00;;;;;;;7.91;37.69;100376.81;6132713;23;20013;-87
2023/03/28 10:26:57;;;;;;;0.85;0.38;;;;;;;7.56;39.42;100384.66;6132747;23;20135;-87
2023/03/28 10:29:22;;;;;;;0.10;0.10;;;;;;;8.08;37.25;100380.56;6130778;23;20453;-87
2023/03/28 10:31:49;;;;;;;0.00;0.00;;;;;;;8.60;36.46;100369.28;6106787;23;20100;-87
2023/03/28 10:34:40;;;;;;;0.10;0.10;;;;;;;8.67;35.32;100366.44;6136039;23;20012;-86
2023/03/28 10:37:28;;;;;;;0.10;0.10;;;;;;;8.81;36.25;100369.00;6159468;23;20028;-87
2023/03/28 10:40:16;;;;;;;0.00;0.00;;;;;;;9.10;37.15;100342.47;6134491;23;20036;-87
2023/03/28 10:42:57;;;;;;;0.00;0.00;;;;;;;9.70;35.76;100354.53;6192055;23;20354;-87
2023/03/28 10:45:57;;;;;;;0.00;0.00;;;;;;;9.01;32.21;100364.38;6122872;23;20449;-87
2023/03/28 10:48:48;;;;;;;0.08;0.08;;;;;;;8.00;32.56;100376.31;6134486;23;20342;-87
2023/03/28 10:51:22;;;;;;;0.00;0.00;;;;;;;8.24;31.16;100350.38;6105885;23;20099;-87
2023/03/28 10:53:57;;;;;;;0.22;0.22;;;;;;;8.58;31.28;100377.22;6105559;23;20091;-87
2023/03/28 10:56:49;;;;;;;0.08;0.08;;;;;;;8.79;31.57;100354.81;6106919;23;20064;-87
2023/03/28 10:59:20;;;;;;;0.10;0.10;;;;;;;8.73;31.01;100356.47;6130287;23;20371;-87
2023/03/28 11:02:00;;;;;;;0.00;0.00;;;;;;;9.10;31.25;100353.53;6131315;23;20020;-88
2023/03/28 11:05:03;;;;;;;0.00;0.00;;;;;;;8.43;31.38;100385.69;6153803;23;20021;-87
2023/03/28 11:07:59;;;;;;;0.00;0.00;;;;;;;8.58;31.45;100349.56;6155192;23;20032;-88
2023/03/28 11:11:09;;;;;;;0.08;0.08;;;;;;;8.84;32.17;100352.34;6133756;23;20412;-87
2023/03/28 11:13:45;;;;;;;0.00;0.00;;;;;;;9.38;33.14;100357.06;6131310;23;20017;-86
2023/03/28 11:16:24;;;;;;;0.03;0.03;;;;;;;9.80;32.61;100354.31;6154422;23;20418;-87
2023/03/28 11:19:21;;;;;;;0.25;0.25;;;;;;;9.39;34.04;100370.47;6155045;23;20052;-88
2023/03/28 11:22:40;;;;;;;0.00;0.00;;;;;;;8.22;34.17;100385.91;6152279;23;20013;-87
2023/03/28 11:25:27;;;;;;;0.00;0.00;;;;;;;7.57;35.11;100358.59;5982034;23;20452;-86
2023/03/28 11:28:40;;;;;;;0.00;0.00;;;;;;;7.15;36.29;100390.88;6179195;23;20051;-87
2023/03/28 11:31:19;;;;;;;0.00;0.00;;;;;;;6.80;36.96;100389.13;6129565;23;20021;-87
2023/03/28 11:34:27;;;;;;;0.00;0.00;;;;;;;6.56;37.48;100382.56;6108294;23;20048;-87
2023/03/28 11:37:06;;;;;;;0.10;0.10;;;;;;;6.55;40.80;100386.50;6129567;23;20625;-86
2023/03/28 11:40:06;;;;;;;0.28;0.28;;;;;;;6.63;43.14;100394.75;6129071;23;20028;-86
2023/03/28 11:42:52;;;;;;;0.00;0.00;;;;;;;6.69;42.46;100438.03;6133571;23;20508;-86
2023/03/28 11:45:52;;;;;;;1.75;0.15;;;;;;;6.55;44.84;100455.41;6153509;23;20117;-86
2023/03/28 11:48:27;;;;;;;0.00;0.00;;;;;;;6.16;48.67;100454.75;6053440;23;20017;-86
2023/03/28 11:51:10;;;;;;;0.10;0.10;;;;;;;6.15;50.34;100469.69;6104726;23;20133;-86
2023/03/28 11:54:04;;;;;;;0.20;0.20;;;;;;;5.56;49.89;100422.53;6157805;23;20016;-86
2023/03/28 11:57:10;;;;;;;0.00;0.00;;;;;;;5.92;51.70;100474.84;6130274;23;20020;-86
2023/03/28 12:00:19;;;;;;;0.10;0.10;;;;;;;6.75;54.68;100471.50;6154258;23;20365;-86
2023/03/28 12:02:56;;;;;;;0.00;0.00;;;;;;;7.56;56.37;100459.97;6179856;23;20016;-85
2023/03/28 12:05:31;;;;;;;0.00;0.00;;;;;;;8.07;53.09;100453.59;6129721;23;20028;-86
2023/03/28 12:08:12;;;;;;;0.08;0.08;;;;;;;8.58;43.86;100451.88;6129877;23;20456;-86
2023/03/28 12:10:41;;;;;;;0.00;0.00;;;;;;;8.62;37.70;100450.63;6129342;23;20021;-86